• Join FlightAware (Why Join?)
  • Login
  • US Flag 
03:42PM EDT


 

Airport Tracker/Info


-or-


 

Live Flight TrackerFlight Track Log ✈ PAG111 ✈ 31-Jul-2013 ✈ CYWG - CYBV

Flight Track Log - Related Links

Times and Time Zones

All times are in EDT time to prevent confusion due to time zone crossing. See the PAG111 flight status page for this flight to view local times or setup timezone preferences in your user account.

Time Position Orientation Groundspeed Altitude Reporting Facility
EDT Latitude Longitude Course Direction KTS MPH feet Rate Location/Type
04:02PM 49.8833 -97.2333 North 30 35 800  Level Winnipeg Center
04:03PM 49.9167 -97.2500 342° North 130 150 2,100 1,380 Climbing Winnipeg Center
04:04PM 49.9500 -97.2500 360° North 170 196 3,600 1,740 Climbing Winnipeg Center
04:05PM 50.0000 -97.2333 12° North 170 196 5,600 1,860 Climbing Winnipeg Center
04:06PM 50.0500 -97.2500 348° North 160 184 7,400 1,620 Climbing Winnipeg Center
04:07PM 50.0833 -97.2500 360° North 170 196 8,900 1,500 Climbing Winnipeg Center
04:08PM 50.2695 -97.2000 North  Level FlightAware Approximate
04:08PM 50.1333 -97.2500 360° North 170 196 10,400  Level Winnipeg Center
04:09PM 50.3312 -97.1969 North  Level FlightAware Approximate
04:09PM 50.1833 -97.2500 360° North 180 207 11,900  Level Winnipeg Center
04:10PM 50.2333 -97.2500 360° North 180 207 13,100 960 Climbing Winnipeg Center
04:11PM 50.3000 -97.2500 360° North 190 219 13,900 360 Climbing Winnipeg Center
04:12PM 50.3500 -97.2333 12° North 230 265 13,900  Level Winnipeg Center
04:13PM 50.4167 -97.2333 360° North 250 288 13,900  Level Winnipeg Center
04:14PM 50.5000 -97.2333 360° North 250 288 13,900  Level Winnipeg Center
04:15PM 50.5667 -97.2333 360° North 260 299 13,900  Level Winnipeg Center
04:16PM 50.6333 -97.2000 18° North 250 288 13,900  Level Winnipeg Center
04:17PM 50.7000 -97.2000 360° North 260 299 13,900  Level Winnipeg Center
04:18PM 50.7833 -97.2000 360° North 250 288 13,900  Level Winnipeg Center
04:19PM 50.8500 -97.1833 North 250 288 14,000  Climbing Winnipeg Center
04:20PM 50.9167 -97.1833 360° North 250 288 14,000  Level Winnipeg Center
04:21PM 50.9833 -97.1833 360° North 250 288 14,000  Level Winnipeg Center
04:22PM 51.0500 -97.1500 17° North 250 288 14,000  Level Winnipeg Center
04:23PM 51.1333 -97.1500 360° North 250 288 14,100  Climbing Winnipeg Center
04:24PM 51.2000 -97.1500 360° North 250 288 14,100  Level Winnipeg Center
04:25PM 51.2667 -97.1333 North 250 288 14,100 -60 Level Winnipeg Center
04:26PM 51.3333 -97.1333 360° North 250 288 14,000 -60 Descending Winnipeg Center
04:27PM 51.4167 -97.1333 360° North 250 288 14,000 -60 Level Winnipeg Center
04:28PM 51.4667 -97.1333 360° North 250 288 13,900 -60 Descending Winnipeg Center
04:29PM 51.5500 -97.1333 360° North 250 288 13,900 -420 Level Winnipeg Center
04:30PM 51.6167 -97.1333 360° North 250 288 13,100 -1,140 Descending Winnipeg Center
04:31PM 51.7000 -97.0667 26° Northeast 280 322 11,700 -1,560 Descending Winnipeg Center
04:32PM 51.7667 -97.0500 North 270 311 10,000 -1,680 Descending Winnipeg Center
04:33PM 51.8333 -97.0167 17° North 270 311 8,400 -1,620 Descending Winnipeg Center
04:35PM 51.9210 -97.0361 352° North  Level FlightAware Approximate
04:42PM 52.3500 -97.0167 North  Level FlightAware Approximate
04:43PM 52.3589 -97.0167 North  Level Estimated
04:44PM 52.3589 -97.0167 North  Level Estimated
04:45PM 52.3589 -97.0167 North  Level Estimated
04:46PM 52.3589 -97.0167 North  Level Estimated
04:47PM 52.3589 -97.0167 North  Level Estimated
04:48PM 52.3589 -97.0167 North  Level Estimated
04:49PM 52.3589 -97.0167 North  Level Estimated
04:50PM 52.3589 -97.0167 North  Level Estimated
04:51PM 52.3589 -97.0167 North  Level Estimated
04:52PM 52.3589 -97.0167 North  Level Estimated
04:53PM 52.3589 -97.0167 North  Level Estimated